หน้าหลัก
METAR-TAF:

METAR-TAF

ท่าอากาศยาน :

Chiredzi, ซิมบับเว

ละติจูด: 21-01S, ลองจิจูด: 031-35E, ความสูง: 429 ม.

การสังเกตสภาพอากาศปัจจุบัน

รายงานได้ทำขึ้นเมื่อ 4 ชั่วโมงและ 15 นาทีที่แล้ว ณ เวลา 15:00 UTC
ลม 9 นอตจากตะวันออกเฉียงใต้
อุณหภูมิ 28°C
ความชื้น 45%
ความกดอากาศ 1024 hPa
ทัศนวิสัย 10 กม. หรือมากกว่า
ไม่มีเมฆต่ำกว่า 1,500 ม. และไม่มีเมฆคิวมูโลนิมบัส

METAR: FVCZ 151500Z 14009KT CAVOK 28/15 Q1024

เวลา: 21:15 (19:15 UTC)


TAF: หายไป

สังเกตการณ์สภาพอากาศและพยากรณ์อากาศของสนามบินมากกว่า 4000 แห่ง (รายงาน METAR และ TAF).

สถานีที่ดูได้จะแสดงไว้ด้วยจุดสีเหลืองและสีแดงบนแผนที่.

เลื่อนเมาส์ไปเหนือจุดเพื่อดูชื่อสถานี.

แล้วคลิกเพื่อดูสังเกตการณ์และการพยากรณ์สภาพอากาศ.

ในการเปลี่ยนแผนที่: คลิกที่ปุ่มสีเขียวที่มีกากบาทสีดำเพื่อซูมเข้า; ที่ปุ่มสีเขียวที่มีขีดเพื่อซูมออก; หรือที่ลูกศรสีเขียวเพื่อไปยังแผนที่ที่อยู่ติดกัน.


METAR-TAF: